sensor_id;sensor_type;location;lat;lon;timestamp;P1;durP1;ratioP1;P2;durP2;ratioP2
62880;SDS011;48969;49.934;8.596;2022-12-07T00:01:29;22.33;;;18.67;;
62880;SDS011;48969;49.934;8.596;2022-12-07T00:03:56;21.60;;;18.73;;
62880;SDS011;48969;49.934;8.596;2022-12-07T00:06:25;8.82;;;5.85;;
62880;SDS011;48969;49.934;8.596;2022-12-07T00:08:54;22.75;;;18.90;;
62880;SDS011;48969;49.934;8.596;2022-12-07T00:11:20;19.33;;;16.92;;
62880;SDS011;48969;49.934;8.596;2022-12-07T00:13:46;20.60;;;17.48;;
62880;SDS011;48969;49.934;8.596;2022-12-07T00:16:13;20.35;;;18.00;;
62880;SDS011;48969;49.934;8.596;2022-12-07T00:18:39;22.73;;;17.90;;
62880;SDS011;48969;49.934;8.596;2022-12-07T00:21:14;21.83;;;17.73;;
62880;SDS011;48969;49.934;8.596;2022-12-07T00:23:40;20.67;;;17.65;;
62880;SDS011;48969;49.934;8.596;2022-12-07T00:26:07;21.35;;;17.13;;
62880;SDS011;48969;49.934;8.596;2022-12-07T00:28:32;21.13;;;17.45;;
62880;SDS011;48969;49.934;8.596;2022-12-07T00:31:05;20.58;;;17.58;;
62880;SDS011;48969;49.934;8.596;2022-12-07T00:35:57;20.78;;;17.60;;
62880;SDS011;48969;49.934;8.596;2022-12-07T00:38:22;20.50;;;17.45;;
62880;SDS011;48969;49.934;8.596;2022-12-07T00:40:58;19.92;;;17.02;;
62880;SDS011;48969;49.934;8.596;2022-12-07T00:43:23;22.63;;;19.17;;
62880;SDS011;48969;49.934;8.596;2022-12-07T00:45:48;20.55;;;18.35;;
62880;SDS011;48969;49.934;8.596;2022-12-07T00:48:14;19.67;;;17.05;;
62880;SDS011;48969;49.934;8.596;2022-12-07T00:50:39;8.63;;;5.07;;
62880;SDS011;48969;49.934;8.596;2022-12-07T00:53:04;20.20;;;16.77;;
62880;SDS011;48969;49.934;8.596;2022-12-07T00:55:32;19.92;;;17.23;;
62880;SDS011;48969;49.934;8.596;2022-12-07T00:57:58;18.85;;;16.90;;
62880;SDS011;48969;49.934;8.596;2022-12-07T01:00:24;20.00;;;16.35;;
62880;SDS011;48969;49.934;8.596;2022-12-07T01:02:49;19.75;;;17.02;;
62880;SDS011;48969;49.934;8.596;2022-12-07T01:05:14;19.02;;;16.58;;
62880;SDS011;48969;49.934;8.596;2022-12-07T01:07:47;9.27;;;4.72;;
62880;SDS011;48969;49.934;8.596;2022-12-07T01:10:17;18.85;;;16.08;;
62880;SDS011;48969;49.934;8.596;2022-12-07T01:12:43;19.58;;;16.85;;
62880;SDS011;48969;49.934;8.596;2022-12-07T01:15:08;20.70;;;17.63;;
62880;SDS011;48969;49.934;8.596;2022-12-07T01:17:34;21.65;;;17.98;;
62880;SDS011;48969;49.934;8.596;2022-12-07T01:20:00;21.85;;;17.63;;
62880;SDS011;48969;49.934;8.596;2022-12-07T01:22:26;19.00;;;16.10;;
62880;SDS011;48969;49.934;8.596;2022-12-07T01:24:51;9.02;;;3.85;;
62880;SDS011;48969;49.934;8.596;2022-12-07T01:27:35;18.52;;;16.27;;
62880;SDS011;48969;49.934;8.596;2022-12-07T01:30:03;20.23;;;17.27;;
62880;SDS011;48969;49.934;8.596;2022-12-07T01:32:38;18.65;;;16.65;;
62880;SDS011;48969;49.934;8.596;2022-12-07T01:35:10;20.10;;;16.30;;
62880;SDS011;48969;49.934;8.596;2022-12-07T01:37:45;17.75;;;15.88;;
62880;SDS011;48969;49.934;8.596;2022-12-07T01:40:11;17.83;;;15.82;;
62880;SDS011;48969;49.934;8.596;2022-12-07T01:42:36;8.82;;;4.43;;
62880;SDS011;48969;49.934;8.596;2022-12-07T01:45:25;19.82;;;16.28;;
62880;SDS011;48969;49.934;8.596;2022-12-07T01:47:56;19.83;;;16.58;;
62880;SDS011;48969;49.934;8.596;2022-12-07T01:50:23;19.10;;;17.02;;
62880;SDS011;48969;49.934;8.596;2022-12-07T01:52:49;22.50;;;18.48;;
62880;SDS011;48969;49.934;8.596;2022-12-07T01:55:15;20.60;;;16.98;;
62880;SDS011;48969;49.934;8.596;2022-12-07T01:57:42;19.50;;;17.05;;
62880;SDS011;48969;49.934;8.596;2022-12-07T02:00:09;6.68;;;4.13;;
62880;SDS011;48969;49.934;8.596;2022-12-07T02:02:37;21.92;;;17.45;;
62880;SDS011;48969;49.934;8.596;2022-12-07T02:05:04;18.75;;;16.48;;
62880;SDS011;48969;49.934;8.596;2022-12-07T02:07:29;8.00;;;4.22;;
62880;SDS011;48969;49.934;8.596;2022-12-07T02:09:56;18.27;;;16.15;;
62880;SDS011;48969;49.934;8.596;2022-12-07T02:12:22;18.20;;;15.82;;
62880;SDS011;48969;49.934;8.596;2022-12-07T02:14:48;18.73;;;16.25;;
62880;SDS011;48969;49.934;8.596;2022-12-07T02:19:51;19.45;;;16.70;;
62880;SDS011;48969;49.934;8.596;2022-12-07T02:22:31;20.15;;;15.82;;
62880;SDS011;48969;49.934;8.596;2022-12-07T02:27:52;10.93;;;3.88;;
62880;SDS011;48969;49.934;8.596;2022-12-07T02:30:21;18.95;;;15.90;;
62880;SDS011;48969;49.934;8.596;2022-12-07T02:42:57;18.90;;;16.42;;
62880;SDS011;48969;49.934;8.596;2022-12-07T02:45:24;6.53;;;3.53;;
62880;SDS011;48969;49.934;8.596;2022-12-07T02:47:51;18.33;;;15.80;;
62880;SDS011;48969;49.934;8.596;2022-12-07T02:50:18;19.60;;;15.52;;
62880;SDS011;48969;49.934;8.596;2022-12-07T02:52:43;18.17;;;16.10;;
62880;SDS011;48969;49.934;8.596;2022-12-07T02:55:08;19.45;;;15.23;;
62880;SDS011;48969;49.934;8.596;2022-12-07T02:57:47;18.35;;;15.90;;
62880;SDS011;48969;49.934;8.596;2022-12-07T03:00:15;9.65;;;4.53;;
62880;SDS011;48969;49.934;8.596;2022-12-07T03:02:52;18.75;;;15.60;;
62880;SDS011;48969;49.934;8.596;2022-12-07T03:05:31;19.63;;;16.38;;
62880;SDS011;48969;49.934;8.596;2022-12-07T03:10:28;18.27;;;15.68;;
62880;SDS011;48969;49.934;8.596;2022-12-07T03:13:09;19.65;;;16.80;;
62880;SDS011;48969;49.934;8.596;2022-12-07T03:15:41;9.23;;;4.53;;
62880;SDS011;48969;49.934;8.596;2022-12-07T03:18:07;21.65;;;17.20;;
62880;SDS011;48969;49.934;8.596;2022-12-07T03:20:32;22.08;;;17.30;;
62880;SDS011;48969;49.934;8.596;2022-12-07T03:22:59;19.05;;;16.73;;
62880;SDS011;48969;49.934;8.596;2022-12-07T03:25:24;20.55;;;16.77;;
62880;SDS011;48969;49.934;8.596;2022-12-07T03:27:54;8.43;;;3.92;;
62880;SDS011;48969;49.934;8.596;2022-12-07T03:30:24;19.50;;;17.25;;
62880;SDS011;48969;49.934;8.596;2022-12-07T03:33:04;18.17;;;16.17;;
62880;SDS011;48969;49.934;8.596;2022-12-07T03:36:17;17.58;;;14.88;;
62880;SDS011;48969;49.934;8.596;2022-12-07T03:38:24;19.95;;;15.90;;
62880;SDS011;48969;49.934;8.596;2022-12-07T03:40:54;16.90;;;14.18;;
62880;SDS011;48969;49.934;8.596;2022-12-07T03:43:20;5.97;;;3.75;;
62880;SDS011;48969;49.934;8.596;2022-12-07T03:46:06;17.98;;;15.18;;
62880;SDS011;48969;49.934;8.596;2022-12-07T03:48:40;19.27;;;15.75;;
62880;SDS011;48969;49.934;8.596;2022-12-07T03:51:15;21.00;;;16.08;;
62880;SDS011;48969;49.934;8.596;2022-12-07T03:53:45;18.30;;;15.55;;
62880;SDS011;48969;49.934;8.596;2022-12-07T03:56:11;18.52;;;15.40;;
62880;SDS011;48969;49.934;8.596;2022-12-07T03:58:37;7.35;;;3.92;;
62880;SDS011;48969;49.934;8.596;2022-12-07T04:01:03;20.10;;;15.35;;
62880;SDS011;48969;49.934;8.596;2022-12-07T04:03:28;18.70;;;15.55;;
62880;SDS011;48969;49.934;8.596;2022-12-07T04:05:54;19.33;;;15.73;;
62880;SDS011;48969;49.934;8.596;2022-12-07T04:08:20;9.90;;;5.22;;
62880;SDS011;48969;49.934;8.596;2022-12-07T04:10:47;18.20;;;15.40;;
62880;SDS011;48969;49.934;8.596;2022-12-07T04:13:13;17.40;;;15.13;;
62880;SDS011;48969;49.934;8.596;2022-12-07T04:15:38;17.02;;;14.55;;
62880;SDS011;48969;49.934;8.596;2022-12-07T04:18:03;19.17;;;15.15;;
62880;SDS011;48969;49.934;8.596;2022-12-07T04:20:28;19.55;;;16.10;;
62880;SDS011;48969;49.934;8.596;2022-12-07T04:22:54;17.83;;;14.90;;
62880;SDS011;48969;49.934;8.596;2022-12-07T04:25:19;7.50;;;4.05;;
62880;SDS011;48969;49.934;8.596;2022-12-07T04:27:44;17.75;;;15.00;;
62880;SDS011;48969;49.934;8.596;2022-12-07T04:30:10;18.55;;;15.23;;
62880;SDS011;48969;49.934;8.596;2022-12-07T04:32:35;4.57;;;3.92;;
62880;SDS011;48969;49.934;8.596;2022-12-07T04:35:01;17.15;;;14.63;;
62880;SDS011;48969;49.934;8.596;2022-12-07T04:37:26;17.95;;;14.27;;
62880;SDS011;48969;49.934;8.596;2022-12-07T04:39:53;18.70;;;14.55;;
62880;SDS011;48969;49.934;8.596;2022-12-07T04:42:18;18.17;;;15.07;;
62880;SDS011;48969;49.934;8.596;2022-12-07T04:44:46;17.55;;;14.65;;
62880;SDS011;48969;49.934;8.596;2022-12-07T04:47:11;18.00;;;14.57;;
62880;SDS011;48969;49.934;8.596;2022-12-07T04:49:37;18.60;;;14.77;;
62880;SDS011;48969;49.934;8.596;2022-12-07T04:52:02;12.00;;;6.65;;
62880;SDS011;48969;49.934;8.596;2022-12-07T04:54:28;8.20;;;5.30;;
62880;SDS011;48969;49.934;8.596;2022-12-07T04:56:53;19.48;;;15.70;;
62880;SDS011;48969;49.934;8.596;2022-12-07T04:59:18;17.64;;;15.34;;
62880;SDS011;48969;49.934;8.596;2022-12-07T05:01:43;17.65;;;14.73;;
62880;SDS011;48969;49.934;8.596;2022-12-07T05:04:08;9.00;;;3.88;;
62880;SDS011;48969;49.934;8.596;2022-12-07T05:06:34;19.13;;;15.13;;
62880;SDS011;48969;49.934;8.596;2022-12-07T05:08:59;16.88;;;15.02;;
62880;SDS011;48969;49.934;8.596;2022-12-07T05:11:28;20.20;;;15.57;;
62880;SDS011;48969;49.934;8.596;2022-12-07T05:14:13;16.55;;;14.52;;
62880;SDS011;48969;49.934;8.596;2022-12-07T05:16:38;18.25;;;15.40;;
62880;SDS011;48969;49.934;8.596;2022-12-07T05:19:04;16.80;;;15.00;;
62880;SDS011;48969;49.934;8.596;2022-12-07T05:21:29;17.13;;;14.68;;
62880;SDS011;48969;49.934;8.596;2022-12-07T05:23:55;17.13;;;14.60;;
62880;SDS011;48969;49.934;8.596;2022-12-07T05:26:20;17.65;;;14.38;;
62880;SDS011;48969;49.934;8.596;2022-12-07T05:28:49;7.22;;;4.35;;
62880;SDS011;48969;49.934;8.596;2022-12-07T05:31:14;18.95;;;15.77;;
62880;SDS011;48969;49.934;8.596;2022-12-07T05:33:40;7.47;;;4.00;;
62880;SDS011;48969;49.934;8.596;2022-12-07T05:36:05;17.30;;;15.10;;
62880;SDS011;48969;49.934;8.596;2022-12-07T05:38:32;18.10;;;15.48;;
62880;SDS011;48969;49.934;8.596;2022-12-07T05:41:17;8.10;;;4.05;;
62880;SDS011;48969;49.934;8.596;2022-12-07T05:44:15;18.38;;;15.20;;
62880;SDS011;48969;49.934;8.596;2022-12-07T05:46:43;17.00;;;14.70;;
62880;SDS011;48969;49.934;8.596;2022-12-07T05:49:08;17.42;;;14.90;;
62880;SDS011;48969;49.934;8.596;2022-12-07T05:51:34;18.35;;;15.35;;
62880;SDS011;48969;49.934;8.596;2022-12-07T05:53:59;5.85;;;3.13;;
62880;SDS011;48969;49.934;8.596;2022-12-07T05:56:25;17.10;;;14.80;;
62880;SDS011;48969;49.934;8.596;2022-12-07T05:58:51;5.20;;;3.85;;
62880;SDS011;48969;49.934;8.596;2022-12-07T06:01:35;17.25;;;14.57;;
62880;SDS011;48969;49.934;8.596;2022-12-07T06:04:00;18.06;;;15.26;;
62880;SDS011;48969;49.934;8.596;2022-12-07T06:06:29;16.50;;;14.38;;
62880;SDS011;48969;49.934;8.596;2022-12-07T06:08:55;5.38;;;3.53;;
62880;SDS011;48969;49.934;8.596;2022-12-07T06:11:23;7.63;;;4.50;;
62880;SDS011;48969;49.934;8.596;2022-12-07T06:14:07;16.88;;;14.07;;
62880;SDS011;48969;49.934;8.596;2022-12-07T06:16:32;17.60;;;15.02;;
62880;SDS011;48969;49.934;8.596;2022-12-07T06:18:57;19.08;;;15.00;;
62880;SDS011;48969;49.934;8.596;2022-12-07T06:21:25;8.82;;;4.88;;
62880;SDS011;48969;49.934;8.596;2022-12-07T06:23:53;16.20;;;14.48;;
62880;SDS011;48969;49.934;8.596;2022-12-07T06:26:18;17.38;;;14.32;;
62880;SDS011;48969;49.934;8.596;2022-12-07T06:28:44;18.92;;;15.25;;
62880;SDS011;48969;49.934;8.596;2022-12-07T06:31:09;7.40;;;4.82;;
62880;SDS011;48969;49.934;8.596;2022-12-07T06:33:34;9.80;;;4.03;;
62880;SDS011;48969;49.934;8.596;2022-12-07T06:35:59;18.85;;;14.50;;
62880;SDS011;48969;49.934;8.596;2022-12-07T06:38:25;16.95;;;14.88;;
62880;SDS011;48969;49.934;8.596;2022-12-07T06:40:50;19.13;;;14.60;;
62880;SDS011;48969;49.934;8.596;2022-12-07T06:43:15;18.50;;;14.70;;
62880;SDS011;48969;49.934;8.596;2022-12-07T06:45:41;19.05;;;14.20;;
62880;SDS011;48969;49.934;8.596;2022-12-07T06:48:06;17.45;;;14.32;;
62880;SDS011;48969;49.934;8.596;2022-12-07T06:50:31;6.90;;;4.18;;
62880;SDS011;48969;49.934;8.596;2022-12-07T06:52:57;16.88;;;14.15;;
62880;SDS011;48969;49.934;8.596;2022-12-07T06:55:22;17.90;;;14.40;;
62880;SDS011;48969;49.934;8.596;2022-12-07T06:57:50;14.88;;;5.47;;
62880;SDS011;48969;49.934;8.596;2022-12-07T07:00:15;18.50;;;14.65;;
62880;SDS011;48969;49.934;8.596;2022-12-07T07:02:41;17.30;;;14.40;;
62880;SDS011;48969;49.934;8.596;2022-12-07T07:05:06;17.42;;;14.52;;
62880;SDS011;48969;49.934;8.596;2022-12-07T07:07:31;17.65;;;13.85;;
62880;SDS011;48969;49.934;8.596;2022-12-07T07:09:57;17.27;;;14.60;;
62880;SDS011;48969;49.934;8.596;2022-12-07T07:12:22;5.40;;;4.00;;
62880;SDS011;48969;49.934;8.596;2022-12-07T07:14:47;17.70;;;15.38;;
62880;SDS011;48969;49.934;8.596;2022-12-07T07:17:12;16.65;;;14.85;;
62880;SDS011;48969;49.934;8.596;2022-12-07T07:19:37;16.10;;;14.07;;
62880;SDS011;48969;49.934;8.596;2022-12-07T07:22:04;5.75;;;3.30;;
62880;SDS011;48969;49.934;8.596;2022-12-07T07:24:33;17.75;;;14.73;;
62880;SDS011;48969;49.934;8.596;2022-12-07T07:26:58;6.68;;;3.58;;
62880;SDS011;48969;49.934;8.596;2022-12-07T07:29:23;18.02;;;14.90;;
62880;SDS011;48969;49.934;8.596;2022-12-07T07:31:49;8.07;;;4.88;;
62880;SDS011;48969;49.934;8.596;2022-12-07T07:34:18;18.00;;;15.02;;
62880;SDS011;48969;49.934;8.596;2022-12-07T07:36:51;17.15;;;15.15;;
62880;SDS011;48969;49.934;8.596;2022-12-07T07:39:17;18.27;;;15.93;;
62880;SDS011;48969;49.934;8.596;2022-12-07T07:41:42;7.05;;;4.60;;
62880;SDS011;48969;49.934;8.596;2022-12-07T07:44:09;19.36;;;15.96;;
62880;SDS011;48969;49.934;8.596;2022-12-07T07:46:35;18.15;;;15.90;;
62880;SDS011;48969;49.934;8.596;2022-12-07T07:49:03;8.38;;;4.30;;
62880;SDS011;48969;49.934;8.596;2022-12-07T07:51:28;18.15;;;15.18;;
62880;SDS011;48969;49.934;8.596;2022-12-07T07:53:55;20.33;;;15.85;;
62880;SDS011;48969;49.934;8.596;2022-12-07T07:56:21;7.70;;;4.90;;
62880;SDS011;48969;49.934;8.596;2022-12-07T07:58:51;18.60;;;15.38;;
62880;SDS011;48969;49.934;8.596;2022-12-07T08:01:16;8.75;;;4.55;;
62880;SDS011;48969;49.934;8.596;2022-12-07T08:03:47;18.83;;;16.45;;
62880;SDS011;48969;49.934;8.596;2022-12-07T08:06:13;20.48;;;17.17;;
62880;SDS011;48969;49.934;8.596;2022-12-07T08:08:39;20.85;;;16.13;;
62880;SDS011;48969;49.934;8.596;2022-12-07T08:11:04;19.80;;;16.73;;
62880;SDS011;48969;49.934;8.596;2022-12-07T08:13:30;9.02;;;4.18;;
62880;SDS011;48969;49.934;8.596;2022-12-07T08:15:55;10.73;;;5.07;;
62880;SDS011;48969;49.934;8.596;2022-12-07T08:18:20;19.35;;;16.17;;
62880;SDS011;48969;49.934;8.596;2022-12-07T08:20:45;20.48;;;16.15;;
62880;SDS011;48969;49.934;8.596;2022-12-07T08:23:10;19.05;;;15.77;;
62880;SDS011;48969;49.934;8.596;2022-12-07T08:25:36;17.85;;;15.77;;
62880;SDS011;48969;49.934;8.596;2022-12-07T08:28:01;19.02;;;16.25;;
62880;SDS011;48969;49.934;8.596;2022-12-07T08:30:27;18.73;;;16.27;;
62880;SDS011;48969;49.934;8.596;2022-12-07T08:32:53;18.33;;;16.00;;
62880;SDS011;48969;49.934;8.596;2022-12-07T08:35:18;19.05;;;16.58;;
62880;SDS011;48969;49.934;8.596;2022-12-07T08:37:44;19.05;;;16.13;;
62880;SDS011;48969;49.934;8.596;2022-12-07T08:40:10;20.75;;;17.23;;
62880;SDS011;48969;49.934;8.596;2022-12-07T08:42:35;19.20;;;15.95;;
62880;SDS011;48969;49.934;8.596;2022-12-07T08:45:09;10.82;;;5.40;;
62880;SDS011;48969;49.934;8.596;2022-12-07T08:48:06;18.90;;;16.77;;
62880;SDS011;48969;49.934;8.596;2022-12-07T08:50:33;19.60;;;16.77;;
62880;SDS011;48969;49.934;8.596;2022-12-07T08:52:59;19.33;;;16.02;;
62880;SDS011;48969;49.934;8.596;2022-12-07T08:55:24;10.35;;;4.93;;
62880;SDS011;48969;49.934;8.596;2022-12-07T08:57:50;20.10;;;16.67;;
62880;SDS011;48969;49.934;8.596;2022-12-07T09:00:16;18.90;;;16.38;;
62880;SDS011;48969;49.934;8.596;2022-12-07T09:02:48;14.63;;;7.00;;
62880;SDS011;48969;49.934;8.596;2022-12-07T09:05:13;19.52;;;16.73;;
62880;SDS011;48969;49.934;8.596;2022-12-07T09:07:40;19.52;;;16.98;;
62880;SDS011;48969;49.934;8.596;2022-12-07T09:10:07;20.10;;;17.30;;
62880;SDS011;48969;49.934;8.596;2022-12-07T09:12:32;22.25;;;17.13;;
62880;SDS011;48969;49.934;8.596;2022-12-07T09:14:58;19.55;;;17.23;;
62880;SDS011;48969;49.934;8.596;2022-12-07T09:17:25;10.80;;;5.88;;
62880;SDS011;48969;49.934;8.596;2022-12-07T09:19:50;18.50;;;16.30;;
62880;SDS011;48969;49.934;8.596;2022-12-07T09:22:18;9.35;;;5.00;;
62880;SDS011;48969;49.934;8.596;2022-12-07T09:24:43;19.58;;;16.45;;
62880;SDS011;48969;49.934;8.596;2022-12-07T09:27:11;19.50;;;16.52;;
62880;SDS011;48969;49.934;8.596;2022-12-07T09:29:39;18.95;;;16.90;;
62880;SDS011;48969;49.934;8.596;2022-12-07T09:32:07;20.63;;;17.77;;
62880;SDS011;48969;49.934;8.596;2022-12-07T09:34:32;20.20;;;16.45;;
62880;SDS011;48969;49.934;8.596;2022-12-07T09:37:01;18.88;;;16.83;;
62880;SDS011;48969;49.934;8.596;2022-12-07T09:39:28;18.00;;;16.08;;
62880;SDS011;48969;49.934;8.596;2022-12-07T09:41:54;19.17;;;16.55;;
62880;SDS011;48969;49.934;8.596;2022-12-07T09:44:33;19.30;;;16.60;;
62880;SDS011;48969;49.934;8.596;2022-12-07T09:47:02;21.20;;;17.33;;
62880;SDS011;48969;49.934;8.596;2022-12-07T09:49:35;18.25;;;16.33;;
62880;SDS011;48969;49.934;8.596;2022-12-07T09:54:35;19.73;;;16.38;;
62880;SDS011;48969;49.934;8.596;2022-12-07T09:57:01;21.00;;;17.13;;
62880;SDS011;48969;49.934;8.596;2022-12-07T09:59:27;18.80;;;16.05;;
62880;SDS011;48969;49.934;8.596;2022-12-07T10:04:40;19.98;;;16.75;;
62880;SDS011;48969;49.934;8.596;2022-12-07T10:07:29;9.75;;;5.07;;
62880;SDS011;48969;49.934;8.596;2022-12-07T10:09:56;17.63;;;15.55;;
62880;SDS011;48969;49.934;8.596;2022-12-07T10:12:23;17.08;;;14.57;;
62880;SDS011;48969;49.934;8.596;2022-12-07T10:15:02;17.85;;;15.55;;
62880;SDS011;48969;49.934;8.596;2022-12-07T10:17:40;18.30;;;14.88;;
62880;SDS011;48969;49.934;8.596;2022-12-07T10:20:14;19.52;;;15.43;;
62880;SDS011;48969;49.934;8.596;2022-12-07T10:22:52;4.72;;;3.50;;
62880;SDS011;48969;49.934;8.596;2022-12-07T10:25:20;18.75;;;15.48;;
62880;SDS011;48969;49.934;8.596;2022-12-07T10:30:29;16.58;;;14.32;;
62880;SDS011;48969;49.934;8.596;2022-12-07T10:33:15;18.48;;;14.60;;
62880;SDS011;48969;49.934;8.596;2022-12-07T10:35:51;16.73;;;14.52;;
62880;SDS011;48969;49.934;8.596;2022-12-07T10:38:19;16.60;;;14.55;;
62880;SDS011;48969;49.934;8.596;2022-12-07T10:40:45;17.45;;;15.05;;
62880;SDS011;48969;49.934;8.596;2022-12-07T10:43:18;17.13;;;14.10;;
62880;SDS011;48969;49.934;8.596;2022-12-07T10:48:35;20.77;;;14.63;;
62880;SDS011;48969;49.934;8.596;2022-12-07T11:07:10;14.65;;;12.73;;
62880;SDS011;48969;49.934;8.596;2022-12-07T11:14:52;16.05;;;13.77;;
62880;SDS011;48969;49.934;8.596;2022-12-07T11:25:49;15.27;;;13.68;;
62880;SDS011;48969;49.934;8.596;2022-12-07T11:30:46;15.68;;;12.55;;
62880;SDS011;48969;49.934;8.596;2022-12-07T11:33:15;17.23;;;14.68;;
62880;SDS011;48969;49.934;8.596;2022-12-07T11:38:28;17.42;;;13.50;;
62880;SDS011;48969;49.934;8.596;2022-12-07T11:41:03;18.08;;;13.70;;
62880;SDS011;48969;49.934;8.596;2022-12-07T11:46:14;17.02;;;12.35;;
62880;SDS011;48969;49.934;8.596;2022-12-07T11:48:41;15.38;;;11.32;;
62880;SDS011;48969;49.934;8.596;2022-12-07T11:51:12;13.00;;;10.90;;
62880;SDS011;48969;49.934;8.596;2022-12-07T11:53:41;14.10;;;11.43;;
62880;SDS011;48969;49.934;8.596;2022-12-07T11:56:11;14.90;;;10.70;;
62880;SDS011;48969;49.934;8.596;2022-12-07T12:06:39;13.18;;;8.82;;
62880;SDS011;48969;49.934;8.596;2022-12-07T12:09:18;9.43;;;7.60;;
62880;SDS011;48969;49.934;8.596;2022-12-07T12:21:53;7.97;;;5.22;;
62880;SDS011;48969;49.934;8.596;2022-12-07T12:24:22;7.32;;;5.00;;
62880;SDS011;48969;49.934;8.596;2022-12-07T12:26:50;6.15;;;4.47;;
62880;SDS011;48969;49.934;8.596;2022-12-07T12:29:21;7.13;;;4.65;;
62880;SDS011;48969;49.934;8.596;2022-12-07T12:32:04;7.82;;;4.50;;
62880;SDS011;48969;49.934;8.596;2022-12-07T12:34:40;5.55;;;4.07;;
62880;SDS011;48969;49.934;8.596;2022-12-07T12:42:43;8.23;;;4.55;;
62880;SDS011;48969;49.934;8.596;2022-12-07T12:45:20;7.20;;;4.15;;
62880;SDS011;48969;49.934;8.596;2022-12-07T12:47:53;6.70;;;4.18;;
62880;SDS011;48969;49.934;8.596;2022-12-07T12:52:49;5.20;;;3.55;;
62880;SDS011;48969;49.934;8.596;2022-12-07T12:55:17;7.13;;;3.70;;
62880;SDS011;48969;49.934;8.596;2022-12-07T12:57:46;5.88;;;3.03;;
62880;SDS011;48969;49.934;8.596;2022-12-07T13:02:53;5.05;;;3.45;;
62880;SDS011;48969;49.934;8.596;2022-12-07T13:05:20;4.75;;;2.80;;
62880;SDS011;48969;49.934;8.596;2022-12-07T13:12:59;5.60;;;3.03;;
62880;SDS011;48969;49.934;8.596;2022-12-07T13:23:35;7.90;;;3.47;;
62880;SDS011;48969;49.934;8.596;2022-12-07T13:28:34;6.32;;;2.80;;
62880;SDS011;48969;49.934;8.596;2022-12-07T13:33:47;7.82;;;2.90;;
62880;SDS011;48969;49.934;8.596;2022-12-07T13:36:20;6.60;;;2.38;;
62880;SDS011;48969;49.934;8.596;2022-12-07T13:39:16;6.40;;;2.80;;
62880;SDS011;48969;49.934;8.596;2022-12-07T13:41:34;6.80;;;2.67;;
62880;SDS011;48969;49.934;8.596;2022-12-07T13:46:30;5.20;;;2.50;;
62880;SDS011;48969;49.934;8.596;2022-12-07T13:48:57;4.68;;;2.55;;
62880;SDS011;48969;49.934;8.596;2022-12-07T13:51:27;7.05;;;2.65;;
62880;SDS011;48969;49.934;8.596;2022-12-07T13:54:07;4.28;;;2.60;;
62880;SDS011;48969;49.934;8.596;2022-12-07T13:56:34;7.25;;;2.67;;
62880;SDS011;48969;49.934;8.596;2022-12-07T13:59:00;2.80;;;2.20;;
62880;SDS011;48969;49.934;8.596;2022-12-07T14:01:26;4.30;;;2.20;;
62880;SDS011;48969;49.934;8.596;2022-12-07T14:03:51;3.80;;;1.95;;
62880;SDS011;48969;49.934;8.596;2022-12-07T14:08:45;4.88;;;2.40;;
62880;SDS011;48969;49.934;8.596;2022-12-07T14:11:28;3.85;;;2.30;;
62880;SDS011;48969;49.934;8.596;2022-12-07T14:13:58;6.47;;;2.35;;
62880;SDS011;48969;49.934;8.596;2022-12-07T14:18:54;4.18;;;2.10;;
62880;SDS011;48969;49.934;8.596;2022-12-07T14:21:22;3.72;;;2.20;;
62880;SDS011;48969;49.934;8.596;2022-12-07T14:26:31;4.97;;;2.60;;
62880;SDS011;48969;49.934;8.596;2022-12-07T14:29:18;4.85;;;2.50;;
62880;SDS011;48969;49.934;8.596;2022-12-07T14:31:42;5.25;;;2.53;;
62880;SDS011;48969;49.934;8.596;2022-12-07T14:34:11;6.65;;;2.97;;
62880;SDS011;48969;49.934;8.596;2022-12-07T14:36:36;6.00;;;2.50;;
62880;SDS011;48969;49.934;8.596;2022-12-07T14:39:07;6.65;;;3.30;;
62880;SDS011;48969;49.934;8.596;2022-12-07T14:41:32;6.53;;;2.67;;
62880;SDS011;48969;49.934;8.596;2022-12-07T14:44:17;4.75;;;2.70;;
62880;SDS011;48969;49.934;8.596;2022-12-07T14:46:43;4.22;;;2.20;;
62880;SDS011;48969;49.934;8.596;2022-12-07T14:49:08;3.90;;;2.60;;
62880;SDS011;48969;49.934;8.596;2022-12-07T14:51:37;3.40;;;2.50;;
62880;SDS011;48969;49.934;8.596;2022-12-07T14:54:04;4.57;;;2.60;;
62880;SDS011;48969;49.934;8.596;2022-12-07T14:56:30;5.38;;;3.35;;
62880;SDS011;48969;49.934;8.596;2022-12-07T14:58:58;4.88;;;2.78;;
62880;SDS011;48969;49.934;8.596;2022-12-07T15:01:23;6.50;;;2.72;;
62880;SDS011;48969;49.934;8.596;2022-12-07T15:03:49;4.40;;;2.83;;
62880;SDS011;48969;49.934;8.596;2022-12-07T15:06:15;6.47;;;2.75;;
62880;SDS011;48969;49.934;8.596;2022-12-07T15:08:41;7.93;;;2.95;;
62880;SDS011;48969;49.934;8.596;2022-12-07T15:11:06;5.90;;;2.67;;
62880;SDS011;48969;49.934;8.596;2022-12-07T15:13:34;6.00;;;2.70;;
62880;SDS011;48969;49.934;8.596;2022-12-07T15:16:19;5.68;;;2.72;;
62880;SDS011;48969;49.934;8.596;2022-12-07T15:18:47;5.35;;;3.00;;
62880;SDS011;48969;49.934;8.596;2022-12-07T15:21:19;5.65;;;3.05;;
62880;SDS011;48969;49.934;8.596;2022-12-07T15:26:13;5.72;;;3.50;;
62880;SDS011;48969;49.934;8.596;2022-12-07T15:28:39;7.65;;;3.95;;
62880;SDS011;48969;49.934;8.596;2022-12-07T15:31:10;6.53;;;3.78;;
62880;SDS011;48969;49.934;8.596;2022-12-07T15:33:35;5.43;;;3.90;;
62880;SDS011;48969;49.934;8.596;2022-12-07T15:36:00;8.00;;;3.97;;
62880;SDS011;48969;49.934;8.596;2022-12-07T15:38:26;6.63;;;3.50;;
62880;SDS011;48969;49.934;8.596;2022-12-07T15:40:53;6.55;;;3.88;;
62880;SDS011;48969;49.934;8.596;2022-12-07T15:43:19;5.70;;;3.58;;
62880;SDS011;48969;49.934;8.596;2022-12-07T15:46:03;5.30;;;3.70;;
62880;SDS011;48969;49.934;8.596;2022-12-07T15:48:28;4.45;;;3.33;;
62880;SDS011;48969;49.934;8.596;2022-12-07T15:51:00;6.35;;;3.72;;
62880;SDS011;48969;49.934;8.596;2022-12-07T15:53:26;7.38;;;4.40;;
62880;SDS011;48969;49.934;8.596;2022-12-07T15:55:53;6.68;;;3.65;;
62880;SDS011;48969;49.934;8.596;2022-12-07T15:58:18;7.80;;;4.65;;
62880;SDS011;48969;49.934;8.596;2022-12-07T16:00:44;10.02;;;5.85;;
62880;SDS011;48969;49.934;8.596;2022-12-07T16:03:09;7.65;;;5.30;;
62880;SDS011;48969;49.934;8.596;2022-12-07T16:05:55;6.70;;;4.97;;
62880;SDS011;48969;49.934;8.596;2022-12-07T16:08:20;6.82;;;4.93;;
62880;SDS011;48969;49.934;8.596;2022-12-07T16:10:45;8.07;;;5.40;;
62880;SDS011;48969;49.934;8.596;2022-12-07T16:13:13;8.25;;;6.53;;
62880;SDS011;48969;49.934;8.596;2022-12-07T16:15:42;9.40;;;5.75;;
62880;SDS011;48969;49.934;8.596;2022-12-07T16:18:07;7.47;;;4.00;;
62880;SDS011;48969;49.934;8.596;2022-12-07T16:20:33;1.20;;;1.10;;
62880;SDS011;48969;49.934;8.596;2022-12-07T16:22:58;5.57;;;3.13;;
62880;SDS011;48969;49.934;8.596;2022-12-07T16:25:23;5.50;;;2.10;;
62880;SDS011;48969;49.934;8.596;2022-12-07T16:27:52;3.38;;;1.00;;
62880;SDS011;48969;49.934;8.596;2022-12-07T16:30:17;4.38;;;1.80;;
62880;SDS011;48969;49.934;8.596;2022-12-07T16:32:43;5.68;;;2.20;;
62880;SDS011;48969;49.934;8.596;2022-12-07T16:35:08;6.07;;;2.53;;
62880;SDS011;48969;49.934;8.596;2022-12-07T16:37:34;4.57;;;2.15;;
62880;SDS011;48969;49.934;8.596;2022-12-07T16:39:59;4.32;;;2.15;;
62880;SDS011;48969;49.934;8.596;2022-12-07T16:42:25;4.38;;;2.40;;
62880;SDS011;48969;49.934;8.596;2022-12-07T16:44:51;5.68;;;2.70;;
62880;SDS011;48969;49.934;8.596;2022-12-07T16:47:16;5.00;;;2.92;;